sensor_id;sensor_type;location;lat;lon;timestamp;pressure;altitude;pressure_sealevel;temperature;humidity
57943;BME280;53626;51.224;-0.164;2022-08-03T00:00:55;100720.40;;;24.22;47.62
57943;BME280;53626;51.224;-0.164;2022-08-03T00:03:22;100718.85;;;24.44;47.67
57943;BME280;53626;51.224;-0.164;2022-08-03T00:05:49;100716.16;;;24.17;47.71
57943;BME280;53626;51.224;-0.164;2022-08-03T00:08:17;100714.14;;;24.42;47.74
57943;BME280;53626;51.224;-0.164;2022-08-03T00:10:44;100716.13;;;24.45;47.67
57943;BME280;53626;51.224;-0.164;2022-08-03T00:13:12;100715.08;;;24.43;47.70
57943;BME280;53626;51.224;-0.164;2022-08-03T00:15:40;100711.59;;;24.43;47.72
57943;BME280;53626;51.224;-0.164;2022-08-03T00:18:08;100711.02;;;24.47;47.67
57943;BME280;53626;51.224;-0.164;2022-08-03T00:20:35;100713.10;;;24.47;47.65
57943;BME280;53626;51.224;-0.164;2022-08-03T00:23:04;100715.53;;;24.42;47.72
57943;BME280;53626;51.224;-0.164;2022-08-03T00:25:32;100716.94;;;24.43;47.72
57943;BME280;53626;51.224;-0.164;2022-08-03T00:28:00;100715.24;;;24.19;47.67
57943;BME280;53626;51.224;-0.164;2022-08-03T00:30:27;100713.61;;;24.44;47.71
57943;BME280;53626;51.224;-0.164;2022-08-03T00:32:54;100713.31;;;24.40;47.76
57943;BME280;53626;51.224;-0.164;2022-08-03T00:35:22;100712.09;;;24.40;47.76
57943;BME280;53626;51.224;-0.164;2022-08-03T00:37:49;100709.60;;;24.39;47.79
57943;BME280;53626;51.224;-0.164;2022-08-03T00:40:18;100705.33;;;24.40;47.80
57943;BME280;53626;51.224;-0.164;2022-08-03T00:42:47;100706.62;;;24.40;47.79
57943;BME280;53626;51.224;-0.164;2022-08-03T00:45:15;100705.67;;;24.40;47.80
57943;BME280;53626;51.224;-0.164;2022-08-03T00:47:42;100704.08;;;24.41;47.80
57943;BME280;53626;51.224;-0.164;2022-08-03T00:50:09;100705.29;;;24.38;47.84
57943;BME280;53626;51.224;-0.164;2022-08-03T00:52:37;100702.76;;;24.61;47.82
57943;BME280;53626;51.224;-0.164;2022-08-03T00:55:05;100702.64;;;24.35;47.87
57943;BME280;53626;51.224;-0.164;2022-08-03T00:57:32;100706.61;;;24.61;47.84
57943;BME280;53626;51.224;-0.164;2022-08-03T01:00:00;100709.69;;;24.39;47.83
57943;BME280;53626;51.224;-0.164;2022-08-03T01:02:28;100703.39;;;24.37;47.86
57943;BME280;53626;51.224;-0.164;2022-08-03T01:04:55;100702.89;;;24.37;47.85
57943;BME280;53626;51.224;-0.164;2022-08-03T01:07:31;100699.12;;;24.38;47.83
57943;BME280;53626;51.224;-0.164;2022-08-03T01:10:11;100698.07;;;24.38;47.84
57943;BME280;53626;51.224;-0.164;2022-08-03T01:12:43;100699.35;;;24.36;47.86
57943;BME280;53626;51.224;-0.164;2022-08-03T01:15:19;100696.07;;;24.39;47.82
57943;BME280;53626;51.224;-0.164;2022-08-03T01:17:56;100694.11;;;24.42;47.80
57943;BME280;53626;51.224;-0.164;2022-08-03T01:20:31;100692.77;;;24.40;47.78
57943;BME280;53626;51.224;-0.164;2022-08-03T01:23:10;100692.81;;;24.79;47.87
57943;BME280;53626;51.224;-0.164;2022-08-03T01:25:59;100700.05;;;24.38;47.85
57943;BME280;53626;51.224;-0.164;2022-08-03T01:28:44;100700.34;;;24.38;47.85
57943;BME280;53626;51.224;-0.164;2022-08-03T01:31:20;100697.93;;;24.36;47.84
57943;BME280;53626;51.224;-0.164;2022-08-03T01:33:54;100695.44;;;24.60;47.84
57943;BME280;53626;51.224;-0.164;2022-08-03T01:36:31;100694.96;;;24.36;47.87
57943;BME280;53626;51.224;-0.164;2022-08-03T01:39:02;100695.10;;;24.38;47.85
57943;BME280;53626;51.224;-0.164;2022-08-03T01:41:32;100696.58;;;24.35;47.89
57943;BME280;53626;51.224;-0.164;2022-08-03T01:44:02;100696.95;;;24.10;47.87
57943;BME280;53626;51.224;-0.164;2022-08-03T01:46:31;100695.47;;;24.34;47.88
57943;BME280;53626;51.224;-0.164;2022-08-03T01:49:00;100694.12;;;24.33;47.92
57943;BME280;53626;51.224;-0.164;2022-08-03T01:51:30;100696.52;;;24.55;47.93
57943;BME280;53626;51.224;-0.164;2022-08-03T01:53:59;100691.28;;;24.33;47.93
57943;BME280;53626;51.224;-0.164;2022-08-03T01:56:28;100686.82;;;24.33;47.94
57943;BME280;53626;51.224;-0.164;2022-08-03T01:58:56;100690.78;;;24.39;47.84
57943;BME280;53626;51.224;-0.164;2022-08-03T02:01:27;100690.81;;;24.39;47.86
57943;BME280;53626;51.224;-0.164;2022-08-03T02:03:57;100687.61;;;24.10;47.86
57943;BME280;53626;51.224;-0.164;2022-08-03T02:06:25;100687.36;;;24.32;47.94
57943;BME280;53626;51.224;-0.164;2022-08-03T02:08:54;100682.30;;;24.31;47.95
57943;BME280;53626;51.224;-0.164;2022-08-03T02:11:21;100687.02;;;24.36;47.86
57943;BME280;53626;51.224;-0.164;2022-08-03T02:13:50;100687.27;;;24.36;47.88
57943;BME280;53626;51.224;-0.164;2022-08-03T02:16:18;100682.06;;;24.53;47.93
57943;BME280;53626;51.224;-0.164;2022-08-03T02:18:48;100680.71;;;24.35;47.87
57943;BME280;53626;51.224;-0.164;2022-08-03T02:21:16;100678.53;;;24.57;47.86
57943;BME280;53626;51.224;-0.164;2022-08-03T02:23:44;100673.30;;;24.31;47.92
57943;BME280;53626;51.224;-0.164;2022-08-03T02:26:14;100676.40;;;24.31;47.92
57943;BME280;53626;51.224;-0.164;2022-08-03T02:28:46;100671.81;;;24.33;47.92
57943;BME280;53626;51.224;-0.164;2022-08-03T02:31:18;100666.73;;;24.34;47.89
57943;BME280;53626;51.224;-0.164;2022-08-03T02:33:49;100667.87;;;24.31;47.91
57943;BME280;53626;51.224;-0.164;2022-08-03T02:36:21;100668.12;;;24.51;47.95
57943;BME280;53626;51.224;-0.164;2022-08-03T02:38:52;100668.23;;;24.28;47.97
57943;BME280;53626;51.224;-0.164;2022-08-03T02:41:23;100672.26;;;24.31;47.93
57943;BME280;53626;51.224;-0.164;2022-08-03T02:43:54;100670.13;;;24.30;47.94
57943;BME280;53626;51.224;-0.164;2022-08-03T02:46:27;100673.28;;;24.53;47.92
57943;BME280;53626;51.224;-0.164;2022-08-03T02:48:56;100667.14;;;24.30;47.92
57943;BME280;53626;51.224;-0.164;2022-08-03T02:51:27;100671.43;;;24.28;47.95
57943;BME280;53626;51.224;-0.164;2022-08-03T02:53:56;100672.46;;;24.02;47.98
57943;BME280;53626;51.224;-0.164;2022-08-03T02:56:27;100674.13;;;24.28;48.00
57943;BME280;53626;51.224;-0.164;2022-08-03T02:58:56;100667.61;;;24.07;47.88
57943;BME280;53626;51.224;-0.164;2022-08-03T03:01:26;100666.66;;;24.06;47.91
57943;BME280;53626;51.224;-0.164;2022-08-03T03:03:55;100665.37;;;24.31;47.91
57943;BME280;53626;51.224;-0.164;2022-08-03T03:06:24;100661.95;;;24.31;47.95
57943;BME280;53626;51.224;-0.164;2022-08-03T03:08:53;100663.24;;;24.31;47.93
57943;BME280;53626;51.224;-0.164;2022-08-03T03:11:23;100662.07;;;24.29;47.98
57943;BME280;53626;51.224;-0.164;2022-08-03T03:13:52;100662.07;;;24.30;47.95
57943;BME280;53626;51.224;-0.164;2022-08-03T03:16:21;100661.80;;;24.52;47.96
57943;BME280;53626;51.224;-0.164;2022-08-03T03:18:50;100653.81;;;24.36;47.84
57943;BME280;53626;51.224;-0.164;2022-08-03T03:21:18;100652.13;;;24.29;47.92
57943;BME280;53626;51.224;-0.164;2022-08-03T03:23:48;100649.89;;;24.26;47.99
57943;BME280;53626;51.224;-0.164;2022-08-03T03:26:15;100648.29;;;24.29;47.97
57943;BME280;53626;51.224;-0.164;2022-08-03T03:28:43;100644.78;;;24.28;47.95
57943;BME280;53626;51.224;-0.164;2022-08-03T03:31:11;100640.93;;;24.29;47.95
57943;BME280;53626;51.224;-0.164;2022-08-03T03:33:38;100646.71;;;24.36;47.82
57943;BME280;53626;51.224;-0.164;2022-08-03T03:36:06;100649.40;;;24.30;47.90
57943;BME280;53626;51.224;-0.164;2022-08-03T03:38:34;100646.75;;;24.49;47.96
57943;BME280;53626;51.224;-0.164;2022-08-03T03:41:01;100648.56;;;24.28;47.98
57943;BME280;53626;51.224;-0.164;2022-08-03T03:43:29;100648.77;;;24.29;47.96
57943;BME280;53626;51.224;-0.164;2022-08-03T03:45:57;100646.24;;;24.30;47.92
57943;BME280;53626;51.224;-0.164;2022-08-03T03:48:25;100649.07;;;24.28;47.97
57943;BME280;53626;51.224;-0.164;2022-08-03T03:50:53;100644.67;;;24.49;48.00
57943;BME280;53626;51.224;-0.164;2022-08-03T03:53:20;100639.08;;;24.28;47.96
57943;BME280;53626;51.224;-0.164;2022-08-03T03:55:48;100642.26;;;24.00;47.97
57943;BME280;53626;51.224;-0.164;2022-08-03T03:58:15;100646.37;;;24.30;47.92
57943;BME280;53626;51.224;-0.164;2022-08-03T04:00:42;100645.23;;;24.28;47.93
57943;BME280;53626;51.224;-0.164;2022-08-03T04:03:10;100648.46;;;24.29;47.91
57943;BME280;53626;51.224;-0.164;2022-08-03T04:05:38;100652.16;;;24.29;47.94
57943;BME280;53626;51.224;-0.164;2022-08-03T04:08:06;100650.01;;;24.27;47.96
57943;BME280;53626;51.224;-0.164;2022-08-03T04:10:35;100648.80;;;24.01;47.95
57943;BME280;53626;51.224;-0.164;2022-08-03T04:13:09;100649.57;;;24.25;47.97
57943;BME280;53626;51.224;-0.164;2022-08-03T04:15:39;100645.89;;;24.27;47.95
57943;BME280;53626;51.224;-0.164;2022-08-03T04:18:10;100642.82;;;24.30;47.91
57943;BME280;53626;51.224;-0.164;2022-08-03T04:20:45;100646.57;;;24.34;47.83
57943;BME280;53626;51.224;-0.164;2022-08-03T04:23:16;100648.09;;;24.30;47.90
57943;BME280;53626;51.224;-0.164;2022-08-03T04:25:47;100651.30;;;24.27;47.95
57943;BME280;53626;51.224;-0.164;2022-08-03T04:28:16;100655.08;;;24.26;47.98
57943;BME280;53626;51.224;-0.164;2022-08-03T04:30:45;100657.43;;;24.26;47.99
57943;BME280;53626;51.224;-0.164;2022-08-03T04:33:13;100658.23;;;24.47;48.01
57943;BME280;53626;51.224;-0.164;2022-08-03T04:35:43;100664.09;;;24.24;48.03
57943;BME280;53626;51.224;-0.164;2022-08-03T04:38:14;100667.74;;;24.23;48.02
57943;BME280;53626;51.224;-0.164;2022-08-03T04:40:45;100669.70;;;24.26;47.97
57943;BME280;53626;51.224;-0.164;2022-08-03T04:43:15;100671.21;;;24.24;48.01
57943;BME280;53626;51.224;-0.164;2022-08-03T04:45:46;100672.16;;;24.24;48.00
57943;BME280;53626;51.224;-0.164;2022-08-03T04:48:13;100675.26;;;24.23;48.04
57943;BME280;53626;51.224;-0.164;2022-08-03T04:50:42;100675.90;;;24.23;48.05
57943;BME280;53626;51.224;-0.164;2022-08-03T04:53:09;100676.29;;;24.22;48.04
57943;BME280;53626;51.224;-0.164;2022-08-03T04:55:36;100678.32;;;24.22;48.03
57943;BME280;53626;51.224;-0.164;2022-08-03T04:58:03;100685.90;;;24.26;47.98
57943;BME280;53626;51.224;-0.164;2022-08-03T05:00:31;100688.11;;;24.26;47.96
57943;BME280;53626;51.224;-0.164;2022-08-03T05:02:58;100693.20;;;23.95;48.01
57943;BME280;53626;51.224;-0.164;2022-08-03T05:05:26;100698.19;;;24.23;48.00
57943;BME280;53626;51.224;-0.164;2022-08-03T05:07:53;100699.61;;;24.46;48.01
57943;BME280;53626;51.224;-0.164;2022-08-03T05:10:20;100699.06;;;24.44;48.01
57943;BME280;53626;51.224;-0.164;2022-08-03T05:12:48;100697.56;;;24.44;48.01
57943;BME280;53626;51.224;-0.164;2022-08-03T05:15:15;100696.92;;;24.22;48.01
57943;BME280;53626;51.224;-0.164;2022-08-03T05:17:43;100692.15;;;23.99;47.97
57943;BME280;53626;51.224;-0.164;2022-08-03T05:20:11;100692.61;;;24.27;47.92
57943;BME280;53626;51.224;-0.164;2022-08-03T05:22:38;100691.06;;;24.55;47.82
57943;BME280;53626;51.224;-0.164;2022-08-03T05:25:06;100691.34;;;24.29;47.85
57943;BME280;53626;51.224;-0.164;2022-08-03T05:27:34;100692.66;;;24.40;47.68
57943;BME280;53626;51.224;-0.164;2022-08-03T05:30:02;100696.55;;;24.32;47.79
57943;BME280;53626;51.224;-0.164;2022-08-03T05:32:29;100696.41;;;24.27;47.87
57943;BME280;53626;51.224;-0.164;2022-08-03T05:34:57;100699.79;;;23.96;47.96
57943;BME280;53626;51.224;-0.164;2022-08-03T05:37:24;100700.22;;;24.22;47.95
57943;BME280;53626;51.224;-0.164;2022-08-03T05:39:52;100702.79;;;24.23;47.97
57943;BME280;53626;51.224;-0.164;2022-08-03T05:42:19;100702.87;;;24.19;48.00
57943;BME280;53626;51.224;-0.164;2022-08-03T05:44:46;100703.73;;;24.18;48.04
57943;BME280;53626;51.224;-0.164;2022-08-03T05:47:13;100703.30;;;24.21;47.99
57943;BME280;53626;51.224;-0.164;2022-08-03T05:49:40;100700.96;;;24.40;48.01
57943;BME280;53626;51.224;-0.164;2022-08-03T05:52:08;100701.92;;;24.17;48.03
57943;BME280;53626;51.224;-0.164;2022-08-03T05:54:35;100703.54;;;24.26;47.89
57943;BME280;53626;51.224;-0.164;2022-08-03T05:57:03;100704.51;;;24.24;47.91
57943;BME280;53626;51.224;-0.164;2022-08-03T05:59:30;100707.71;;;24.26;47.88
57943;BME280;53626;51.224;-0.164;2022-08-03T06:01:57;100708.98;;;24.22;47.95
57943;BME280;53626;51.224;-0.164;2022-08-03T06:04:25;100710.20;;;24.21;47.96
57943;BME280;53626;51.224;-0.164;2022-08-03T06:06:52;100707.77;;;24.19;47.99
57943;BME280;53626;51.224;-0.164;2022-08-03T06:09:20;100705.60;;;24.21;47.96
57943;BME280;53626;51.224;-0.164;2022-08-03T06:11:47;100702.13;;;24.19;47.98
57943;BME280;53626;51.224;-0.164;2022-08-03T06:14:14;100702.77;;;24.19;47.96
57943;BME280;53626;51.224;-0.164;2022-08-03T06:16:42;100702.46;;;24.17;47.99
57943;BME280;53626;51.224;-0.164;2022-08-03T06:19:09;100700.51;;;24.24;47.86
57943;BME280;53626;51.224;-0.164;2022-08-03T06:21:36;100701.34;;;24.20;47.95
57943;BME280;53626;51.224;-0.164;2022-08-03T06:24:04;100700.56;;;24.20;47.96
57943;BME280;53626;51.224;-0.164;2022-08-03T06:26:31;100698.72;;;24.19;47.96
57943;BME280;53626;51.224;-0.164;2022-08-03T06:28:59;100702.71;;;24.20;47.97
57943;BME280;53626;51.224;-0.164;2022-08-03T06:31:26;100704.15;;;24.20;47.96
57943;BME280;53626;51.224;-0.164;2022-08-03T06:33:53;100703.93;;;24.18;47.99
57943;BME280;53626;51.224;-0.164;2022-08-03T06:36:21;100707.59;;;24.19;47.99
57943;BME280;53626;51.224;-0.164;2022-08-03T06:38:48;100707.99;;;24.19;47.99
57943;BME280;53626;51.224;-0.164;2022-08-03T06:41:16;100711.03;;;24.22;47.95
57943;BME280;53626;51.224;-0.164;2022-08-03T06:43:43;100708.88;;;24.20;47.97
57943;BME280;53626;51.224;-0.164;2022-08-03T06:46:10;100706.02;;;24.39;48.00
57943;BME280;53626;51.224;-0.164;2022-08-03T06:48:38;100707.14;;;24.16;48.00
57943;BME280;53626;51.224;-0.164;2022-08-03T06:51:05;100709.86;;;24.44;47.93
57943;BME280;53626;51.224;-0.164;2022-08-03T06:53:32;100705.67;;;24.21;47.93
57943;BME280;53626;51.224;-0.164;2022-08-03T06:56:00;100707.82;;;24.19;47.96
57943;BME280;53626;51.224;-0.164;2022-08-03T06:58:27;100711.03;;;24.22;47.94
57943;BME280;53626;51.224;-0.164;2022-08-03T07:00:55;100709.27;;;24.21;47.92
57943;BME280;53626;51.224;-0.164;2022-08-03T07:03:22;100710.38;;;24.42;47.94
57943;BME280;53626;51.224;-0.164;2022-08-03T07:05:49;100712.87;;;24.18;47.95
57943;BME280;53626;51.224;-0.164;2022-08-03T07:08:17;100717.86;;;24.42;47.95
57943;BME280;53626;51.224;-0.164;2022-08-03T07:10:44;100718.55;;;24.22;47.91
57943;BME280;53626;51.224;-0.164;2022-08-03T07:13:11;100717.56;;;24.19;47.95
57943;BME280;53626;51.224;-0.164;2022-08-03T07:15:39;100715.67;;;24.18;48.00
57943;BME280;53626;51.224;-0.164;2022-08-03T07:18:06;100715.60;;;24.24;47.89
57943;BME280;53626;51.224;-0.164;2022-08-03T07:20:34;100710.34;;;24.24;47.87
57943;BME280;53626;51.224;-0.164;2022-08-03T07:23:01;100711.24;;;24.23;47.84
57943;BME280;53626;51.224;-0.164;2022-08-03T07:25:28;100708.93;;;23.95;47.87
57943;BME280;53626;51.224;-0.164;2022-08-03T07:27:56;100712.48;;;24.21;47.87
57943;BME280;53626;51.224;-0.164;2022-08-03T07:30:23;100715.13;;;24.21;47.87
57943;BME280;53626;51.224;-0.164;2022-08-03T07:32:51;100724.51;;;24.20;47.88
57943;BME280;53626;51.224;-0.164;2022-08-03T07:35:18;100732.62;;;24.20;47.91
57943;BME280;53626;51.224;-0.164;2022-08-03T07:37:45;100727.74;;;24.19;47.92
57943;BME280;53626;51.224;-0.164;2022-08-03T07:40:13;100729.52;;;24.20;47.90
57943;BME280;53626;51.224;-0.164;2022-08-03T07:42:40;100728.84;;;24.19;47.89
57943;BME280;53626;51.224;-0.164;2022-08-03T07:45:09;100727.92;;;24.64;47.90
57943;BME280;53626;51.224;-0.164;2022-08-03T07:47:36;100732.85;;;24.20;47.88
57943;BME280;53626;51.224;-0.164;2022-08-03T07:50:05;100732.39;;;24.41;47.91
57943;BME280;53626;51.224;-0.164;2022-08-03T07:52:32;100732.63;;;24.23;47.87
57943;BME280;53626;51.224;-0.164;2022-08-03T07:55:00;100736.31;;;24.22;47.82
57943;BME280;53626;51.224;-0.164;2022-08-03T07:57:27;100735.48;;;24.23;47.79
57943;BME280;53626;51.224;-0.164;2022-08-03T07:59:54;100737.18;;;24.51;47.68
57943;BME280;53626;51.224;-0.164;2022-08-03T08:02:22;100738.82;;;24.22;47.75
57943;BME280;53626;51.224;-0.164;2022-08-03T08:04:49;100739.07;;;24.23;47.77
57943;BME280;53626;51.224;-0.164;2022-08-03T08:07:17;100738.53;;;24.23;47.77
57943;BME280;53626;51.224;-0.164;2022-08-03T08:09:44;100734.69;;;24.23;47.79
57943;BME280;53626;51.224;-0.164;2022-08-03T08:12:11;100735.90;;;24.21;47.86
57943;BME280;53626;51.224;-0.164;2022-08-03T08:14:39;100742.70;;;24.42;47.91
57943;BME280;53626;51.224;-0.164;2022-08-03T08:17:06;100740.62;;;24.20;47.92
57943;BME280;53626;51.224;-0.164;2022-08-03T08:19:34;100742.18;;;24.25;47.84
57943;BME280;53626;51.224;-0.164;2022-08-03T08:22:01;100741.96;;;24.23;47.84
57943;BME280;53626;51.224;-0.164;2022-08-03T08:24:28;100743.77;;;24.24;47.83
57943;BME280;53626;51.224;-0.164;2022-08-03T08:26:56;100744.01;;;24.25;47.81
57943;BME280;53626;51.224;-0.164;2022-08-03T08:29:23;100739.69;;;24.22;47.83
57943;BME280;53626;51.224;-0.164;2022-08-03T08:31:51;100738.74;;;24.22;47.85
57943;BME280;53626;51.224;-0.164;2022-08-03T08:34:18;100738.35;;;24.21;47.86
57943;BME280;53626;51.224;-0.164;2022-08-03T08:36:45;100735.99;;;24.40;47.88
57943;BME280;53626;51.224;-0.164;2022-08-03T08:39:13;100733.46;;;24.21;47.84
57943;BME280;53626;51.224;-0.164;2022-08-03T08:41:40;100731.69;;;24.21;47.87
57943;BME280;53626;51.224;-0.164;2022-08-03T08:44:08;100726.38;;;24.19;47.85
57943;BME280;53626;51.224;-0.164;2022-08-03T08:46:38;100728.52;;;24.44;47.83
57943;BME280;53626;51.224;-0.164;2022-08-03T08:49:06;100726.18;;;24.20;47.85
57943;BME280;53626;51.224;-0.164;2022-08-03T08:51:36;100723.13;;;24.22;47.81
57943;BME280;53626;51.224;-0.164;2022-08-03T08:54:07;100719.92;;;24.22;47.83
57943;BME280;53626;51.224;-0.164;2022-08-03T08:56:35;100724.43;;;24.22;47.83
57943;BME280;53626;51.224;-0.164;2022-08-03T08:59:02;100725.96;;;24.48;47.78
57943;BME280;53626;51.224;-0.164;2022-08-03T09:01:30;100727.93;;;24.28;47.72
57943;BME280;53626;51.224;-0.164;2022-08-03T09:03:57;100736.20;;;24.25;47.76
57943;BME280;53626;51.224;-0.164;2022-08-03T09:06:25;100738.16;;;24.25;47.77
57943;BME280;53626;51.224;-0.164;2022-08-03T09:08:52;100741.66;;;24.25;47.77
57943;BME280;53626;51.224;-0.164;2022-08-03T09:11:22;100743.09;;;24.27;47.73
57943;BME280;53626;51.224;-0.164;2022-08-03T09:13:49;100746.83;;;24.25;47.77
57943;BME280;53626;51.224;-0.164;2022-08-03T09:16:18;100745.82;;;24.23;47.81
57943;BME280;53626;51.224;-0.164;2022-08-03T09:18:48;100739.48;;;23.98;47.77
57943;BME280;53626;51.224;-0.164;2022-08-03T09:21:19;100740.09;;;24.27;47.75
57943;BME280;53626;51.224;-0.164;2022-08-03T09:23:48;100730.22;;;24.51;47.74
57943;BME280;53626;51.224;-0.164;2022-08-03T09:26:21;100728.63;;;24.25;47.78
57943;BME280;53626;51.224;-0.164;2022-08-03T09:28:54;100725.89;;;24.28;47.75
57943;BME280;53626;51.224;-0.164;2022-08-03T09:31:31;100725.06;;;24.29;47.76
57943;BME280;53626;51.224;-0.164;2022-08-03T09:34:01;100726.00;;;24.27;47.76
57943;BME280;53626;51.224;-0.164;2022-08-03T09:36:34;100724.80;;;24.27;47.76
57943;BME280;53626;51.224;-0.164;2022-08-03T09:39:04;100724.69;;;24.33;47.71
57943;BME280;53626;51.224;-0.164;2022-08-03T09:41:32;100725.07;;;24.03;47.72
57943;BME280;53626;51.224;-0.164;2022-08-03T09:43:59;100723.22;;;24.29;47.73
57943;BME280;53626;51.224;-0.164;2022-08-03T09:46:26;100721.50;;;24.03;47.77
57943;BME280;53626;51.224;-0.164;2022-08-03T09:49:08;100720.37;;;24.03;47.76
57943;BME280;53626;51.224;-0.164;2022-08-03T09:51:36;100719.22;;;24.29;47.77
57943;BME280;53626;51.224;-0.164;2022-08-03T09:54:03;100712.40;;;24.26;47.80
57943;BME280;53626;51.224;-0.164;2022-08-03T09:56:47;100713.34;;;24.04;47.75
57943;BME280;53626;51.224;-0.164;2022-08-03T09:59:23;100711.89;;;24.36;47.67
57943;BME280;53626;51.224;-0.164;2022-08-03T10:01:51;100709.62;;;24.33;47.70
57943;BME280;53626;51.224;-0.164;2022-08-03T10:04:19;100708.20;;;24.30;47.75
57943;BME280;53626;51.224;-0.164;2022-08-03T10:07:02;100709.62;;;24.29;47.80
57943;BME280;53626;51.224;-0.164;2022-08-03T10:09:30;100711.38;;;24.30;47.77
57943;BME280;53626;51.224;-0.164;2022-08-03T10:12:05;100709.27;;;24.31;47.74
57943;BME280;53626;51.224;-0.164;2022-08-03T10:14:33;100707.90;;;24.29;47.77
57943;BME280;53626;51.224;-0.164;2022-08-03T10:17:01;100709.93;;;24.74;47.76
57943;BME280;53626;51.224;-0.164;2022-08-03T10:19:29;100711.25;;;24.40;47.60
57943;BME280;53626;51.224;-0.164;2022-08-03T10:22:08;100708.95;;;24.36;47.66
57943;BME280;53626;51.224;-0.164;2022-08-03T10:24:36;100710.24;;;24.38;47.65
57943;BME280;53626;51.224;-0.164;2022-08-03T10:27:06;100709.65;;;24.81;47.65
57943;BME280;53626;51.224;-0.164;2022-08-03T10:29:37;100713.41;;;24.37;47.67
57943;BME280;53626;51.224;-0.164;2022-08-03T10:32:11;100707.42;;;24.34;47.70
57943;BME280;53626;51.224;-0.164;2022-08-03T10:34:41;100706.47;;;24.38;47.67
57943;BME280;53626;51.224;-0.164;2022-08-03T10:37:11;100706.53;;;24.35;47.68
57943;BME280;53626;51.224;-0.164;2022-08-03T10:39:43;100707.82;;;24.35;47.68
57943;BME280;53626;51.224;-0.164;2022-08-03T10:42:11;100705.09;;;24.35;47.70
57943;BME280;53626;51.224;-0.164;2022-08-03T10:44:38;100707.28;;;24.37;47.66
57943;BME280;53626;51.224;-0.164;2022-08-03T10:47:08;100699.24;;;24.37;47.65
57943;BME280;53626;51.224;-0.164;2022-08-03T10:49:37;100700.28;;;24.57;47.67
57943;BME280;53626;51.224;-0.164;2022-08-03T10:52:05;100704.00;;;24.37;47.67
57943;BME280;53626;51.224;-0.164;2022-08-03T10:54:42;100705.48;;;24.38;47.65
57943;BME280;53626;51.224;-0.164;2022-08-03T10:57:41;100707.89;;;24.38;47.63
57943;BME280;53626;51.224;-0.164;2022-08-03T11:00:10;100704.98;;;24.46;47.51
57943;BME280;53626;51.224;-0.164;2022-08-03T11:03:10;100699.66;;;24.44;47.56
57943;BME280;53626;51.224;-0.164;2022-08-03T11:05:41;100699.55;;;24.45;47.54
57943;BME280;53626;51.224;-0.164;2022-08-03T11:08:41;100697.90;;;24.47;47.50
57943;BME280;53626;51.224;-0.164;2022-08-03T11:11:24;100697.41;;;24.47;47.51
57943;BME280;53626;51.224;-0.164;2022-08-03T11:13:57;100690.57;;;24.48;47.48
57943;BME280;53626;51.224;-0.164;2022-08-03T11:16:26;100688.50;;;24.47;47.50
57943;BME280;53626;51.224;-0.164;2022-08-03T11:18:56;100686.76;;;24.53;47.40
57943;BME280;53626;51.224;-0.164;2022-08-03T11:21:53;100685.72;;;24.54;47.36
57943;BME280;53626;51.224;-0.164;2022-08-03T11:25:25;100684.04;;;24.51;47.43
57943;BME280;53626;51.224;-0.164;2022-08-03T11:28:24;100690.72;;;24.48;47.49
57943;BME280;53626;51.224;-0.164;2022-08-03T11:30:52;100684.23;;;24.69;47.50
57943;BME280;53626;51.224;-0.164;2022-08-03T11:33:28;100680.26;;;24.49;47.48
57943;BME280;53626;51.224;-0.164;2022-08-03T11:36:00;100685.84;;;24.50;47.47
57943;BME280;53626;51.224;-0.164;2022-08-03T11:38:28;100688.41;;;24.49;47.47
57943;BME280;53626;51.224;-0.164;2022-08-03T11:40:55;100690.07;;;24.50;47.45
57943;BME280;53626;51.224;-0.164;2022-08-03T11:43:55;100686.80;;;24.48;47.47
57943;BME280;53626;51.224;-0.164;2022-08-03T11:46:22;100687.04;;;24.48;47.50
57943;BME280;53626;51.224;-0.164;2022-08-03T11:48:50;100687.23;;;24.51;47.45
57943;BME280;53626;51.224;-0.164;2022-08-03T11:51:20;100676.92;;;24.51;47.44
57943;BME280;53626;51.224;-0.164;2022-08-03T11:53:51;100668.67;;;24.22;47.46
57943;BME280;53626;51.224;-0.164;2022-08-03T11:56:19;100668.60;;;24.50;47.45
57943;BME280;53626;51.224;-0.164;2022-08-03T11:58:46;100674.26;;;24.55;47.38
57943;BME280;53626;51.224;-0.164;2022-08-03T12:01:14;100673.85;;;24.52;47.41
57943;BME280;53626;51.224;-0.164;2022-08-03T12:03:41;100672.54;;;24.50;47.44
57943;BME280;53626;51.224;-0.164;2022-08-03T12:06:10;100675.48;;;24.50;47.45
57943;BME280;53626;51.224;-0.164;2022-08-03T12:08:40;100673.09;;;24.53;47.41
57943;BME280;53626;51.224;-0.164;2022-08-03T12:11:08;100679.74;;;24.52;47.41
57943;BME280;53626;51.224;-0.164;2022-08-03T12:13:38;100682.98;;;24.75;47.39
57943;BME280;53626;51.224;-0.164;2022-08-03T12:16:06;100677.84;;;24.75;47.41
57943;BME280;53626;51.224;-0.164;2022-08-03T12:18:34;100677.66;;;24.35;47.27
57943;BME280;53626;51.224;-0.164;2022-08-03T12:21:05;100675.23;;;24.58;47.32
57943;BME280;53626;51.224;-0.164;2022-08-03T12:23:33;100678.29;;;24.57;47.34
57943;BME280;53626;51.224;-0.164;2022-08-03T12:26:03;100675.41;;;24.56;47.35
57943;BME280;53626;51.224;-0.164;2022-08-03T12:28:32;100678.44;;;24.57;47.36
57943;BME280;53626;51.224;-0.164;2022-08-03T12:31:01;100688.18;;;24.56;47.36
57943;BME280;53626;51.224;-0.164;2022-08-03T12:33:29;100682.66;;;24.56;47.36
57943;BME280;53626;51.224;-0.164;2022-08-03T12:36:06;100680.51;;;24.58;47.32
57943;BME280;53626;51.224;-0.164;2022-08-03T12:38:36;100679.80;;;24.59;47.31
57943;BME280;53626;51.224;-0.164;2022-08-03T12:41:06;100673.93;;;24.59;47.31
57943;BME280;53626;51.224;-0.164;2022-08-03T12:43:34;100668.45;;;24.57;47.33
57943;BME280;53626;51.224;-0.164;2022-08-03T12:46:11;100663.16;;;24.58;47.31
57943;BME280;53626;51.224;-0.164;2022-08-03T12:49:12;100668.18;;;24.61;47.30
57943;BME280;53626;51.224;-0.164;2022-08-03T12:51:56;100667.62;;;24.33;47.30
57943;BME280;53626;51.224;-0.164;2022-08-03T12:54:26;100668.12;;;24.34;47.29